Daihatsumaru — JD2764 — position and weather

sailwx.info

Track history (hours):
 
Tides and Currents Weather Stations Pressure Air Temp Water Temp Dewpoint Dewpoint Depression Visibility Wind Speed Wind Dir Waves Ship Positions

Daihatsumaru

Last reported at 2017-Mar-30 04:33 UTC. Time now 2017-Mar-30 04:42 UTC.
Position N 34°36' E 135°08'.

Length 106 m; draft 4.5 m.

Type: Cargo ship. MMSI: 431000701.

Date/timePositionNaut miles runAvg speedWind from/ knotsBaromVisibWave heightAir tempDewpointWater temp
2017-Mar-30 04:33N 34°36' E 135°08'14 5.7
2017-Mar-30 02:11N 34°41' E 135°23'0 0.0
2017-Mar-30 01:11N 34°41' E 135°23'0 0.0
2017-Mar-30 00:17N 34°41' E 135°23'0 0.0
2017-Mar-29 23:29N 34°41' E 135°23'0 0.0
2017-Mar-29 22:32N 34°41' E 135°23'3 3.3
2017-Mar-29 21:34N 34°39' E 135°20'0 0.0
2017-Mar-29 20:16N 34°40' E 135°20'0 0.1
2017-Mar-29 19:33N 34°39' E 135°20'1312.8
2017-Mar-29 18:33N 34°35' E 135°06'12513.9
2017-Mar-29 09:33N 33°55' E 132°42'3 3.4
2017-Mar-29 08:33N 33°52' E 132°42'1110.6
2017-Mar-29 07:33N 33°48' E 132°30'2 0.1
2017-Mar-28 17:33N 33°48' E 132°28'1616.2
2017-Mar-28 16:34N 33°59' E 132°43'12210.1
2017-Mar-28 04:33N 34°36' E 135°03'1413.7
2017-Mar-28 03:34N 34°39' E 135°20'4 3.9
2017-Mar-28 02:32N 34°41' E 135°23'0 0.0
2017-Mar-28 01:26N 34°41' E 135°23'0 0.0
2017-Mar-28 00:26N 34°41' E 135°23'0 0.0
2017-Mar-27 23:20N 34°41' E 135°23'2 2.2
2017-Mar-27 22:33N 34°40' E 135°22'1 1.4
2017-Mar-27 21:32N 34°39' E 135°20'0 0.0
2017-Mar-27 20:32N 34°39' E 135°20'0 0.0
2017-Mar-27 19:26N 34°39' E 135°20'7 7.6
2017-Mar-27 18:33N 34°35' E 135°14'1616.2
2017-Mar-27 17:33N 34°35' E 134°54'11514.4
2017-Mar-27 09:33N 33°56' E 132°43'5 4.6
2017-Mar-27 08:33N 33°52' E 132°42'0 0.0
2017-Mar-27 07:33N 33°52' E 132°42'1211.5
2017-Mar-27 06:33N 33°48' E 132°29'16 0.4
2017-Mar-25 17:26N 33°49' E 132°10'1415.6
2017-Mar-25 16:33N 33°51' E 132°26'1716.3
2017-Mar-25 15:30N 33°60' E 132°44'11910.8
2017-Mar-25 04:24N 34°37' E 135°01'1113.4
2017-Mar-25 03:33N 34°37' E 135°15'8 8.0
2017-Mar-25 02:33N 34°41' E 135°23'0 0.0
2017-Mar-25 01:22N 34°41' E 135°23'0 0.1
2017-Mar-25 00:28N 34°41' E 135°23'0 0.0
2017-Mar-24 23:28N 34°41' E 135°23'2 2.2
2017-Mar-24 22:33N 34°40' E 135°21'1 1.0
2017-Mar-24 21:23N 34°39' E 135°20'0 0.0
2017-Mar-24 20:23N 34°39' E 135°20'2 2.1
2017-Mar-24 19:33N 34°38' E 135°19'1413.8
2017-Mar-24 18:33N 34°36' E 135°03'12113.4
2017-Mar-24 09:33N 33°58' E 132°44'6 6.3
2017-Mar-24 08:33N 33°52' E 132°42'0 0.0
2017-Mar-24 07:33N 33°52' E 132°42'1211.6
2017-Mar-24 06:33N 33°48' E 132°29'16 1.3
2017-Mar-23 17:33N 33°49' E 132°09'1514.9
2017-Mar-23 16:34N 33°51' E 132°27'1515.4
2017-Mar-23 15:33N 33°59' E 132°43'12010.8
2017-Mar-23 04:25N 34°37' E 135°02'1214.0
2017-Mar-23 03:33N 34°37' E 135°16'7 7.3
2017-Mar-23 02:33N 34°41' E 135°23'0 0.0
2017-Mar-23 01:33N 34°41' E 135°23'0 0.0
2017-Mar-22 23:33N 34°41' E 135°23'0 0.0
2017-Mar-22 22:33N 34°41' E 135°23'3 2.5
2017-Mar-22 21:28N 34°40' E 135°21'0 0.0
2017-Mar-22 20:28N 34°40' E 135°21'2 2.0
2017-Mar-22 19:33N 34°38' E 135°19'1414.0
2017-Mar-22 18:33N 34°36' E 135°03'12113.3
2017-Mar-22 09:26N 33°58' E 132°44'6 7.0
2017-Mar-22 08:34N 33°52' E 132°42'1 1.5
2017-Mar-22 07:34N 33°52' E 132°41'1615.6
2017-Mar-22 06:33N 33°46' E 132°24'9 0.8
2017-Mar-21 18:12N 33°43' E 132°13'914.8
2017-Mar-21 17:33N 33°46' E 132°24'1313.1
2017-Mar-21 16:33N 33°54' E 132°36'12010.6
2017-Mar-21 05:10N 34°36' E 134°53'813.0
2017-Mar-21 04:33N 34°37' E 135°02'1414.2
2017-Mar-21 03:33N 34°39' E 135°19'4 3.0
2017-Mar-21 02:06N 34°41' E 135°23'0 0.0
2017-Mar-21 01:30N 34°41' E 135°23'0 0.0
2017-Mar-21 00:12N 34°41' E 135°23'0 0.1
2017-Mar-20 23:30N 34°41' E 135°23'2 1.7
2017-Mar-20 22:33N 34°40' E 135°22'1 1.1
2017-Mar-20 21:27N 34°40' E 135°20'0 0.0
2017-Mar-20 20:33N 34°40' E 135°20'1111.4
2017-Mar-20 19:33N 34°35' E 135°08'12512.5
2017-Mar-20 09:33N 33°57' E 132°43'6 5.8
2017-Mar-20 08:33N 33°52' E 132°42'6 6.2
2017-Mar-20 07:34N 33°50' E 132°35'1514.6
2017-Mar-20 06:34N 33°44' E 132°19'  
Track history (hours):
 
Tides and Currents Weather Stations Pressure Air Temp Water Temp Dewpoint Dewpoint Depression Visibility Wind Speed Wind Dir Waves Ship Positions

Daihatsumaru

Last reported at 2017-Mar-30 04:33 UTC. Time now 2017-Mar-30 04:42 UTC.
Position N 34°36' E 135°08'.

Length 106 m; draft 4.5 m.

Type: Cargo ship. MMSI: 431000701.

Date/timePositionNaut miles runAvg speedWind from/ knotsBaromVisibWave heightAir tempDewpointWater temp
2017-Mar-30 04:33N 34°36' E 135°08'14 5.7
2017-Mar-30 02:11N 34°41' E 135°23'0 0.0
2017-Mar-30 01:11N 34°41' E 135°23'0 0.0
2017-Mar-30 00:17N 34°41' E 135°23'0 0.0
2017-Mar-29 23:29N 34°41' E 135°23'0 0.0
2017-Mar-29 22:32N 34°41' E 135°23'3 3.3
2017-Mar-29 21:34N 34°39' E 135°20'0 0.0
2017-Mar-29 20:16N 34°40' E 135°20'0 0.1
2017-Mar-29 19:33N 34°39' E 135°20'1312.8
2017-Mar-29 18:33N 34°35' E 135°06'12513.9
2017-Mar-29 09:33N 33°55' E 132°42'3 3.4
2017-Mar-29 08:33N 33°52' E 132°42'1110.6
2017-Mar-29 07:33N 33°48' E 132°30'2 0.1
2017-Mar-28 17:33N 33°48' E 132°28'1616.2
2017-Mar-28 16:34N 33°59' E 132°43'12210.1
2017-Mar-28 04:33N 34°36' E 135°03'1413.7
2017-Mar-28 03:34N 34°39' E 135°20'4 3.9
2017-Mar-28 02:32N 34°41' E 135°23'0 0.0
2017-Mar-28 01:26N 34°41' E 135°23'0 0.0
2017-Mar-28 00:26N 34°41' E 135°23'0 0.0
2017-Mar-27 23:20N 34°41' E 135°23'2 2.2
2017-Mar-27 22:33N 34°40' E 135°22'1 1.4
2017-Mar-27 21:32N 34°39' E 135°20'0 0.0
2017-Mar-27 20:32N 34°39' E 135°20'0 0.0
2017-Mar-27 19:26N 34°39' E 135°20'7 7.6
2017-Mar-27 18:33N 34°35' E 135°14'1616.2
2017-Mar-27 17:33N 34°35' E 134°54'11514.4
2017-Mar-27 09:33N 33°56' E 132°43'5 4.6
2017-Mar-27 08:33N 33°52' E 132°42'0 0.0
2017-Mar-27 07:33N 33°52' E 132°42'1211.5
2017-Mar-27 06:33N 33°48' E 132°29'16 0.4
2017-Mar-25 17:26N 33°49' E 132°10'1415.6
2017-Mar-25 16:33N 33°51' E 132°26'1716.3
2017-Mar-25 15:30N 33°60' E 132°44'11910.8
2017-Mar-25 04:24N 34°37' E 135°01'1113.4
2017-Mar-25 03:33N 34°37' E 135°15'8 8.0
2017-Mar-25 02:33N 34°41' E 135°23'0 0.0
2017-Mar-25 01:22N 34°41' E 135°23'0 0.1
2017-Mar-25 00:28N 34°41' E 135°23'0 0.0
2017-Mar-24 23:28N 34°41' E 135°23'2 2.2
2017-Mar-24 22:33N 34°40' E 135°21'1 1.0
2017-Mar-24 21:23N 34°39' E 135°20'0 0.0
2017-Mar-24 20:23N 34°39' E 135°20'2 2.1
2017-Mar-24 19:33N 34°38' E 135°19'1413.8
2017-Mar-24 18:33N 34°36' E 135°03'12113.4
2017-Mar-24 09:33N 33°58' E 132°44'6 6.3
2017-Mar-24 08:33N 33°52' E 132°42'0 0.0
2017-Mar-24 07:33N 33°52' E 132°42'1211.6
2017-Mar-24 06:33N 33°48' E 132°29'16 1.3
2017-Mar-23 17:33N 33°49' E 132°09'1514.9
2017-Mar-23 16:34N 33°51' E 132°27'1515.4
2017-Mar-23 15:33N 33°59' E 132°43'12010.8
2017-Mar-23 04:25N 34°37' E 135°02'1214.0
2017-Mar-23 03:33N 34°37' E 135°16'7 7.3
2017-Mar-23 02:33N 34°41' E 135°23'0 0.0
2017-Mar-23 01:33N 34°41' E 135°23'0 0.0
2017-Mar-22 23:33N 34°41' E 135°23'0 0.0
2017-Mar-22 22:33N 34°41' E 135°23'3 2.5
2017-Mar-22 21:28N 34°40' E 135°21'0 0.0
2017-Mar-22 20:28N 34°40' E 135°21'2 2.0
2017-Mar-22 19:33N 34°38' E 135°19'1414.0
2017-Mar-22 18:33N 34°36' E 135°03'12113.3
2017-Mar-22 09:26N 33°58' E 132°44'6 7.0
2017-Mar-22 08:34N 33°52' E 132°42'1 1.5
2017-Mar-22 07:34N 33°52' E 132°41'1615.6
2017-Mar-22 06:33N 33°46' E 132°24'9 0.8
2017-Mar-21 18:12N 33°43' E 132°13'914.8
2017-Mar-21 17:33N 33°46' E 132°24'1313.1
2017-Mar-21 16:33N 33°54' E 132°36'12010.6
2017-Mar-21 05:10N 34°36' E 134°53'813.0
2017-Mar-21 04:33N 34°37' E 135°02'1414.2
2017-Mar-21 03:33N 34°39' E 135°19'4 3.0
2017-Mar-21 02:06N 34°41' E 135°23'0 0.0
2017-Mar-21 01:30N 34°41' E 135°23'0 0.0
2017-Mar-21 00:12N 34°41' E 135°23'0 0.1
2017-Mar-20 23:30N 34°41' E 135°23'2 1.7
2017-Mar-20 22:33N 34°40' E 135°22'1 1.1
2017-Mar-20 21:27N 34°40' E 135°20'0 0.0
2017-Mar-20 20:33N 34°40' E 135°20'1111.4
2017-Mar-20 19:33N 34°35' E 135°08'12512.5
2017-Mar-20 09:33N 33°57' E 132°43'6 5.8
2017-Mar-20 08:33N 33°52' E 132°42'6 6.2
2017-Mar-20 07:34N 33°50' E 132°35'1514.6
2017-Mar-20 06:34N 33°44' E 132°19'  

Dump ship's entire track history